sensor_id;sensor_type;location;lat;lon;timestamp;P1;durP1;ratioP1;P2;durP2;ratioP2
49366;SDS011;35245;52.026;8.540;2023-04-25T00:01:39;18.50;;;6.55;;
49366;SDS011;35245;52.026;8.540;2023-04-25T00:04:06;16.73;;;6.85;;
49366;SDS011;35245;52.026;8.540;2023-04-25T00:06:33;19.65;;;6.75;;
49366;SDS011;35245;52.026;8.540;2023-04-25T00:09:01;21.98;;;7.05;;
49366;SDS011;35245;52.026;8.540;2023-04-25T00:11:29;22.38;;;6.35;;
49366;SDS011;35245;52.026;8.540;2023-04-25T00:13:57;20.17;;;6.90;;
49366;SDS011;35245;52.026;8.540;2023-04-25T00:16:24;21.70;;;6.35;;
49366;SDS011;35245;52.026;8.540;2023-04-25T00:18:52;17.25;;;6.38;;
49366;SDS011;35245;52.026;8.540;2023-04-25T00:21:19;17.17;;;7.50;;
49366;SDS011;35245;52.026;8.540;2023-04-25T00:23:46;18.60;;;6.28;;
49366;SDS011;35245;52.026;8.540;2023-04-25T00:26:13;20.65;;;7.45;;
49366;SDS011;35245;52.026;8.540;2023-04-25T00:28:41;19.70;;;7.85;;
49366;SDS011;35245;52.026;8.540;2023-04-25T00:31:08;17.08;;;6.97;;
49366;SDS011;35245;52.026;8.540;2023-04-25T00:33:35;19.38;;;7.07;;
49366;SDS011;35245;52.026;8.540;2023-04-25T00:36:02;17.55;;;7.15;;
49366;SDS011;35245;52.026;8.540;2023-04-25T00:38:29;20.48;;;7.35;;
49366;SDS011;35245;52.026;8.540;2023-04-25T00:40:56;24.30;;;7.57;;
49366;SDS011;35245;52.026;8.540;2023-04-25T00:43:23;19.50;;;7.88;;
49366;SDS011;35245;52.026;8.540;2023-04-25T00:45:52;20.15;;;7.40;;
49366;SDS011;35245;52.026;8.540;2023-04-25T00:48:22;19.75;;;7.53;;
49366;SDS011;35245;52.026;8.540;2023-04-25T00:50:51;15.05;;;6.80;;
49366;SDS011;35245;52.026;8.540;2023-04-25T00:53:19;24.65;;;7.60;;
49366;SDS011;35245;52.026;8.540;2023-04-25T00:55:46;19.38;;;8.02;;
49366;SDS011;35245;52.026;8.540;2023-04-25T00:58:13;18.83;;;8.25;;
49366;SDS011;35245;52.026;8.540;2023-04-25T01:00:40;20.15;;;7.82;;
49366;SDS011;35245;52.026;8.540;2023-04-25T01:03:08;28.40;;;8.95;;
49366;SDS011;35245;52.026;8.540;2023-04-25T01:05:36;18.73;;;7.45;;
49366;SDS011;35245;52.026;8.540;2023-04-25T01:08:03;18.40;;;8.02;;
49366;SDS011;35245;52.026;8.540;2023-04-25T01:10:29;16.67;;;7.53;;
49366;SDS011;35245;52.026;8.540;2023-04-25T01:12:56;20.23;;;7.45;;
49366;SDS011;35245;52.026;8.540;2023-04-25T01:15:23;23.42;;;9.02;;
49366;SDS011;35245;52.026;8.540;2023-04-25T01:17:50;25.30;;;9.18;;
49366;SDS011;35245;52.026;8.540;2023-04-25T01:20:19;25.05;;;8.57;;
49366;SDS011;35245;52.026;8.540;2023-04-25T01:22:49;20.15;;;7.35;;
49366;SDS011;35245;52.026;8.540;2023-04-25T01:25:16;16.00;;;7.32;;
49366;SDS011;35245;52.026;8.540;2023-04-25T01:27:43;22.10;;;8.98;;
49366;SDS011;35245;52.026;8.540;2023-04-25T01:30:10;18.17;;;7.85;;
49366;SDS011;35245;52.026;8.540;2023-04-25T01:32:37;18.13;;;7.85;;
49366;SDS011;35245;52.026;8.540;2023-04-25T01:35:05;16.10;;;7.40;;
49366;SDS011;35245;52.026;8.540;2023-04-25T01:37:34;21.30;;;8.63;;
49366;SDS011;35245;52.026;8.540;2023-04-25T01:40:03;18.67;;;7.32;;
49366;SDS011;35245;52.026;8.540;2023-04-25T01:42:32;18.25;;;7.63;;
49366;SDS011;35245;52.026;8.540;2023-04-25T01:44:59;15.20;;;7.43;;
49366;SDS011;35245;52.026;8.540;2023-04-25T01:47:26;18.77;;;7.93;;
49366;SDS011;35245;52.026;8.540;2023-04-25T01:49:53;14.95;;;7.35;;
49366;SDS011;35245;52.026;8.540;2023-04-25T01:52:20;17.48;;;7.53;;
49366;SDS011;35245;52.026;8.540;2023-04-25T01:54:47;22.27;;;8.15;;
49366;SDS011;35245;52.026;8.540;2023-04-25T01:57:15;18.92;;;8.45;;
49366;SDS011;35245;52.026;8.540;2023-04-25T01:59:43;14.95;;;7.78;;
49366;SDS011;35245;52.026;8.540;2023-04-25T02:02:10;16.58;;;7.07;;
49366;SDS011;35245;52.026;8.540;2023-04-25T02:04:37;17.73;;;8.98;;
49366;SDS011;35245;52.026;8.540;2023-04-25T02:07:03;18.05;;;7.43;;
49366;SDS011;35245;52.026;8.540;2023-04-25T02:09:30;17.98;;;7.78;;
49366;SDS011;35245;52.026;8.540;2023-04-25T02:11:57;18.02;;;7.15;;
49366;SDS011;35245;52.026;8.540;2023-04-25T02:14:26;13.05;;;6.70;;
49366;SDS011;35245;52.026;8.540;2023-04-25T02:16:53;15.00;;;6.72;;
49366;SDS011;35245;52.026;8.540;2023-04-25T02:19:20;10.23;;;4.97;;
49366;SDS011;35245;52.026;8.540;2023-04-25T02:21:47;11.38;;;4.93;;
49366;SDS011;35245;52.026;8.540;2023-04-25T02:24:14;11.68;;;4.93;;
49366;SDS011;35245;52.026;8.540;2023-04-25T02:26:41;16.45;;;5.28;;
49366;SDS011;35245;52.026;8.540;2023-04-25T02:29:08;13.43;;;5.00;;
49366;SDS011;35245;52.026;8.540;2023-04-25T02:31:36;11.75;;;4.35;;
49366;SDS011;35245;52.026;8.540;2023-04-25T02:34:03;14.05;;;4.38;;
49366;SDS011;35245;52.026;8.540;2023-04-25T02:36:30;14.80;;;4.90;;
49366;SDS011;35245;52.026;8.540;2023-04-25T02:38:59;12.95;;;4.80;;
49366;SDS011;35245;52.026;8.540;2023-04-25T02:41:26;13.80;;;4.95;;
49366;SDS011;35245;52.026;8.540;2023-04-25T02:43:53;12.05;;;4.85;;
49366;SDS011;35245;52.026;8.540;2023-04-25T02:46:19;19.67;;;5.70;;
49366;SDS011;35245;52.026;8.540;2023-04-25T02:48:48;16.35;;;5.18;;
49366;SDS011;35245;52.026;8.540;2023-04-25T02:51:15;14.13;;;4.70;;
49366;SDS011;35245;52.026;8.540;2023-04-25T02:53:42;11.18;;;4.70;;
49366;SDS011;35245;52.026;8.540;2023-04-25T02:56:09;15.88;;;4.78;;
49366;SDS011;35245;52.026;8.540;2023-04-25T02:58:35;20.05;;;5.38;;
49366;SDS011;35245;52.026;8.540;2023-04-25T03:01:02;16.30;;;5.22;;
49366;SDS011;35245;52.026;8.540;2023-04-25T03:03:29;19.65;;;5.47;;
49366;SDS011;35245;52.026;8.540;2023-04-25T03:05:58;19.67;;;5.38;;
49366;SDS011;35245;52.026;8.540;2023-04-25T03:08:25;26.00;;;5.45;;
49366;SDS011;35245;52.026;8.540;2023-04-25T03:10:56;18.73;;;4.80;;
49366;SDS011;35245;52.026;8.540;2023-04-25T03:13:23;21.25;;;4.78;;
49366;SDS011;35245;52.026;8.540;2023-04-25T03:15:50;17.25;;;5.25;;
49366;SDS011;35245;52.026;8.540;2023-04-25T03:18:17;19.73;;;4.90;;
49366;SDS011;35245;52.026;8.540;2023-04-25T03:20:44;20.30;;;6.10;;
49366;SDS011;35245;52.026;8.540;2023-04-25T03:23:13;21.60;;;5.00;;
49366;SDS011;35245;52.026;8.540;2023-04-25T03:25:40;22.23;;;5.82;;
49366;SDS011;35245;52.026;8.540;2023-04-25T03:28:07;21.55;;;5.53;;
49366;SDS011;35245;52.026;8.540;2023-04-25T03:30:34;25.92;;;5.10;;
49366;SDS011;35245;52.026;8.540;2023-04-25T03:33:01;24.60;;;5.47;;
49366;SDS011;35245;52.026;8.540;2023-04-25T03:35:28;26.45;;;6.10;;
49366;SDS011;35245;52.026;8.540;2023-04-25T03:37:55;24.65;;;5.88;;
49366;SDS011;35245;52.026;8.540;2023-04-25T03:40:23;25.67;;;5.82;;
49366;SDS011;35245;52.026;8.540;2023-04-25T03:42:50;23.40;;;6.03;;
49366;SDS011;35245;52.026;8.540;2023-04-25T03:45:17;22.92;;;4.85;;
49366;SDS011;35245;52.026;8.540;2023-04-25T03:47:44;22.92;;;5.35;;
49366;SDS011;35245;52.026;8.540;2023-04-25T03:50:11;29.75;;;6.20;;
49366;SDS011;35245;52.026;8.540;2023-04-25T03:52:38;24.27;;;6.40;;
49366;SDS011;35245;52.026;8.540;2023-04-25T03:55:05;24.52;;;5.50;;
49366;SDS011;35245;52.026;8.540;2023-04-25T03:57:34;23.48;;;5.57;;
49366;SDS011;35245;52.026;8.540;2023-04-25T04:00:00;19.42;;;5.47;;
49366;SDS011;35245;52.026;8.540;2023-04-25T04:02:29;20.02;;;5.20;;
49366;SDS011;35245;52.026;8.540;2023-04-25T04:04:55;21.10;;;5.20;;
49366;SDS011;35245;52.026;8.540;2023-04-25T04:07:22;24.77;;;5.80;;
49366;SDS011;35245;52.026;8.540;2023-04-25T04:09:49;21.38;;;5.00;;
49366;SDS011;35245;52.026;8.540;2023-04-25T04:12:16;22.25;;;5.32;;
49366;SDS011;35245;52.026;8.540;2023-04-25T04:14:44;19.77;;;4.60;;
49366;SDS011;35245;52.026;8.540;2023-04-25T04:17:11;33.80;;;6.13;;
49366;SDS011;35245;52.026;8.540;2023-04-25T04:19:38;21.15;;;5.53;;
49366;SDS011;35245;52.026;8.540;2023-04-25T04:22:05;24.40;;;5.38;;
49366;SDS011;35245;52.026;8.540;2023-04-25T04:24:32;25.83;;;5.57;;
49366;SDS011;35245;52.026;8.540;2023-04-25T04:26:59;22.10;;;5.22;;
49366;SDS011;35245;52.026;8.540;2023-04-25T04:29:26;22.15;;;6.07;;
49366;SDS011;35245;52.026;8.540;2023-04-25T04:31:54;32.38;;;7.18;;
49366;SDS011;35245;52.026;8.540;2023-04-25T04:34:21;21.27;;;4.72;;
49366;SDS011;35245;52.026;8.540;2023-04-25T04:36:49;24.00;;;5.60;;
49366;SDS011;35245;52.026;8.540;2023-04-25T04:39:16;22.83;;;5.45;;
49366;SDS011;35245;52.026;8.540;2023-04-25T04:41:43;20.83;;;5.80;;
49366;SDS011;35245;52.026;8.540;2023-04-25T04:44:10;18.60;;;6.20;;
49366;SDS011;35245;52.026;8.540;2023-04-25T04:46:37;18.48;;;6.50;;
49366;SDS011;35245;52.026;8.540;2023-04-25T04:49:08;17.83;;;5.45;;
49366;SDS011;35245;52.026;8.540;2023-04-25T04:51:35;25.98;;;5.78;;
49366;SDS011;35245;52.026;8.540;2023-04-25T04:54:02;26.77;;;6.05;;
49366;SDS011;35245;52.026;8.540;2023-04-25T04:56:30;24.15;;;6.68;;
49366;SDS011;35245;52.026;8.540;2023-04-25T04:58:57;20.08;;;5.90;;
49366;SDS011;35245;52.026;8.540;2023-04-25T05:01:24;27.42;;;6.40;;
49366;SDS011;35245;52.026;8.540;2023-04-25T05:03:52;19.73;;;5.50;;
49366;SDS011;35245;52.026;8.540;2023-04-25T05:06:20;24.67;;;6.13;;
49366;SDS011;35245;52.026;8.540;2023-04-25T05:08:47;22.42;;;7.95;;
49366;SDS011;35245;52.026;8.540;2023-04-25T05:11:14;23.17;;;6.47;;
49366;SDS011;35245;52.026;8.540;2023-04-25T05:13:41;28.63;;;6.72;;
49366;SDS011;35245;52.026;8.540;2023-04-25T05:16:07;25.05;;;6.72;;
49366;SDS011;35245;52.026;8.540;2023-04-25T05:18:34;22.05;;;6.10;;
49366;SDS011;35245;52.026;8.540;2023-04-25T05:21:01;23.17;;;6.72;;
49366;SDS011;35245;52.026;8.540;2023-04-25T05:23:30;23.52;;;7.63;;
49366;SDS011;35245;52.026;8.540;2023-04-25T05:25:57;21.30;;;6.65;;
49366;SDS011;35245;52.026;8.540;2023-04-25T05:28:24;25.25;;;7.03;;
49366;SDS011;35245;52.026;8.540;2023-04-25T05:30:51;23.25;;;6.15;;
49366;SDS011;35245;52.026;8.540;2023-04-25T05:33:18;19.33;;;6.07;;
49366;SDS011;35245;52.026;8.540;2023-04-25T05:35:45;21.98;;;6.15;;
49366;SDS011;35245;52.026;8.540;2023-04-25T05:38:12;19.00;;;5.28;;
49366;SDS011;35245;52.026;8.540;2023-04-25T05:40:41;24.13;;;6.43;;
49366;SDS011;35245;52.026;8.540;2023-04-25T05:43:08;20.77;;;6.28;;
49366;SDS011;35245;52.026;8.540;2023-04-25T05:45:34;24.85;;;5.85;;
49366;SDS011;35245;52.026;8.540;2023-04-25T05:48:01;20.00;;;5.75;;
49366;SDS011;35245;52.026;8.540;2023-04-25T05:50:29;18.10;;;6.72;;
49366;SDS011;35245;52.026;8.540;2023-04-25T05:52:56;18.95;;;5.75;;
49366;SDS011;35245;52.026;8.540;2023-04-25T05:55:22;19.85;;;5.40;;
49366;SDS011;35245;52.026;8.540;2023-04-25T05:57:51;23.13;;;5.82;;
49366;SDS011;35245;52.026;8.540;2023-04-25T06:00:18;20.20;;;5.88;;
49366;SDS011;35245;52.026;8.540;2023-04-25T06:02:47;17.77;;;5.05;;
49366;SDS011;35245;52.026;8.540;2023-04-25T06:05:14;19.33;;;5.50;;
49366;SDS011;35245;52.026;8.540;2023-04-25T06:07:41;25.15;;;6.72;;
49366;SDS011;35245;52.026;8.540;2023-04-25T06:10:08;18.85;;;5.30;;
49366;SDS011;35245;52.026;8.540;2023-04-25T06:12:35;22.10;;;5.68;;
49366;SDS011;35245;52.026;8.540;2023-04-25T06:15:05;23.65;;;5.68;;
49366;SDS011;35245;52.026;8.540;2023-04-25T06:17:33;24.58;;;5.70;;
49366;SDS011;35245;52.026;8.540;2023-04-25T06:20:00;21.60;;;5.35;;
49366;SDS011;35245;52.026;8.540;2023-04-25T06:22:28;22.30;;;5.75;;
49366;SDS011;35245;52.026;8.540;2023-04-25T06:24:54;17.27;;;5.07;;
49366;SDS011;35245;52.026;8.540;2023-04-25T06:27:24;18.88;;;4.63;;
49366;SDS011;35245;52.026;8.540;2023-04-25T06:29:51;19.42;;;5.22;;
49366;SDS011;35245;52.026;8.540;2023-04-25T06:32:19;22.55;;;5.22;;
49366;SDS011;35245;52.026;8.540;2023-04-25T06:34:46;36.55;;;5.38;;
49366;SDS011;35245;52.026;8.540;2023-04-25T06:37:13;19.95;;;5.20;;
49366;SDS011;35245;52.026;8.540;2023-04-25T06:39:40;18.55;;;4.57;;
49366;SDS011;35245;52.026;8.540;2023-04-25T06:42:07;24.50;;;5.55;;
49366;SDS011;35245;52.026;8.540;2023-04-25T06:44:35;20.08;;;5.15;;
49366;SDS011;35245;52.026;8.540;2023-04-25T06:47:01;19.40;;;4.65;;
49366;SDS011;35245;52.026;8.540;2023-04-25T06:49:30;13.10;;;3.88;;
49366;SDS011;35245;52.026;8.540;2023-04-25T06:51:57;16.08;;;3.88;;
49366;SDS011;35245;52.026;8.540;2023-04-25T06:54:24;21.85;;;4.35;;
49366;SDS011;35245;52.026;8.540;2023-04-25T06:56:52;13.98;;;4.50;;
49366;SDS011;35245;52.026;8.540;2023-04-25T06:59:19;20.98;;;4.53;;
49366;SDS011;35245;52.026;8.540;2023-04-25T07:01:46;17.73;;;4.38;;
49366;SDS011;35245;52.026;8.540;2023-04-25T07:04:13;15.70;;;3.63;;
49366;SDS011;35245;52.026;8.540;2023-04-25T07:06:41;20.42;;;4.50;;
49366;SDS011;35245;52.026;8.540;2023-04-25T07:09:08;11.73;;;3.45;;
49366;SDS011;35245;52.026;8.540;2023-04-25T07:11:36;17.65;;;4.60;;
49366;SDS011;35245;52.026;8.540;2023-04-25T07:14:03;16.20;;;4.55;;
49366;SDS011;35245;52.026;8.540;2023-04-25T07:16:29;15.65;;;4.18;;
49366;SDS011;35245;52.026;8.540;2023-04-25T07:18:56;20.20;;;4.38;;
49366;SDS011;35245;52.026;8.540;2023-04-25T07:21:24;20.67;;;7.10;;
49366;SDS011;35245;52.026;8.540;2023-04-25T07:23:52;20.92;;;4.00;;
49366;SDS011;35245;52.026;8.540;2023-04-25T07:26:19;16.63;;;3.80;;
49366;SDS011;35245;52.026;8.540;2023-04-25T07:28:46;19.35;;;4.80;;
49366;SDS011;35245;52.026;8.540;2023-04-25T07:31:15;17.60;;;4.22;;
49366;SDS011;35245;52.026;8.540;2023-04-25T07:33:43;21.23;;;4.70;;
49366;SDS011;35245;52.026;8.540;2023-04-25T07:36:10;21.80;;;5.05;;
49366;SDS011;35245;52.026;8.540;2023-04-25T07:38:37;19.13;;;4.82;;
49366;SDS011;35245;52.026;8.540;2023-04-25T07:41:06;20.27;;;4.75;;
49366;SDS011;35245;52.026;8.540;2023-04-25T07:43:33;14.38;;;4.05;;
49366;SDS011;35245;52.026;8.540;2023-04-25T07:46:00;21.83;;;4.38;;
49366;SDS011;35245;52.026;8.540;2023-04-25T07:48:27;17.23;;;3.65;;
49366;SDS011;35245;52.026;8.540;2023-04-25T07:50:54;20.27;;;4.00;;
49366;SDS011;35245;52.026;8.540;2023-04-25T07:53:21;18.05;;;4.28;;
49366;SDS011;35245;52.026;8.540;2023-04-25T07:55:48;18.88;;;3.80;;
49366;SDS011;35245;52.026;8.540;2023-04-25T07:58:17;13.18;;;3.58;;
49366;SDS011;35245;52.026;8.540;2023-04-25T08:00:46;16.30;;;4.10;;
49366;SDS011;35245;52.026;8.540;2023-04-25T08:03:14;12.85;;;3.30;;
49366;SDS011;35245;52.026;8.540;2023-04-25T08:05:41;19.67;;;3.47;;
49366;SDS011;35245;52.026;8.540;2023-04-25T08:08:07;18.60;;;3.67;;
49366;SDS011;35245;52.026;8.540;2023-04-25T08:10:34;15.07;;;4.10;;
49366;SDS011;35245;52.026;8.540;2023-04-25T08:13:01;17.90;;;3.70;;
49366;SDS011;35245;52.026;8.540;2023-04-25T08:15:30;16.77;;;3.85;;
49366;SDS011;35245;52.026;8.540;2023-04-25T08:17:56;17.65;;;3.00;;
49366;SDS011;35245;52.026;8.540;2023-04-25T08:20:24;16.05;;;2.78;;
49366;SDS011;35245;52.026;8.540;2023-04-25T08:22:51;11.18;;;2.75;;
49366;SDS011;35245;52.026;8.540;2023-04-25T08:25:18;17.65;;;3.45;;
49366;SDS011;35245;52.026;8.540;2023-04-25T08:27:45;15.70;;;4.20;;
49366;SDS011;35245;52.026;8.540;2023-04-25T08:30:12;12.32;;;3.08;;
49366;SDS011;35245;52.026;8.540;2023-04-25T08:32:41;15.57;;;3.53;;
49366;SDS011;35245;52.026;8.540;2023-04-25T08:35:08;14.93;;;3.60;;
49366;SDS011;35245;52.026;8.540;2023-04-25T08:37:35;10.13;;;2.90;;
49366;SDS011;35245;52.026;8.540;2023-04-25T08:40:03;7.38;;;2.90;;
49366;SDS011;35245;52.026;8.540;2023-04-25T08:42:32;18.85;;;3.45;;
49366;SDS011;35245;52.026;8.540;2023-04-25T08:45:01;11.85;;;2.97;;
49366;SDS011;35245;52.026;8.540;2023-04-25T08:47:29;13.82;;;3.38;;
49366;SDS011;35245;52.026;8.540;2023-04-25T08:49:58;12.48;;;2.72;;
49366;SDS011;35245;52.026;8.540;2023-04-25T08:52:27;15.23;;;2.88;;
49366;SDS011;35245;52.026;8.540;2023-04-25T08:54:56;22.30;;;3.53;;
49366;SDS011;35245;52.026;8.540;2023-04-25T08:57:23;12.65;;;3.13;;
49366;SDS011;35245;52.026;8.540;2023-04-25T08:59:51;10.93;;;2.72;;
49366;SDS011;35245;52.026;8.540;2023-04-25T09:02:18;11.52;;;3.42;;
49366;SDS011;35245;52.026;8.540;2023-04-25T09:04:46;11.25;;;2.45;;
49366;SDS011;35245;52.026;8.540;2023-04-25T09:07:14;14.18;;;2.97;;
49366;SDS011;35245;52.026;8.540;2023-04-25T09:09:43;12.45;;;3.00;;
49366;SDS011;35245;52.026;8.540;2023-04-25T09:12:10;14.68;;;3.33;;
49366;SDS011;35245;52.026;8.540;2023-04-25T09:14:37;10.25;;;3.22;;
49366;SDS011;35245;52.026;8.540;2023-04-25T09:17:04;10.25;;;3.08;;
49366;SDS011;35245;52.026;8.540;2023-04-25T09:19:33;8.23;;;2.47;;
49366;SDS011;35245;52.026;8.540;2023-04-25T09:22:01;9.52;;;3.08;;
49366;SDS011;35245;52.026;8.540;2023-04-25T09:24:34;13.35;;;2.67;;
49366;SDS011;35245;52.026;8.540;2023-04-25T09:27:05;11.35;;;2.78;;
49366;SDS011;35245;52.026;8.540;2023-04-25T09:29:33;11.07;;;2.78;;
49366;SDS011;35245;52.026;8.540;2023-04-25T09:32:15;10.02;;;2.83;;
49366;SDS011;35245;52.026;8.540;2023-04-25T09:34:44;12.15;;;3.28;;
49366;SDS011;35245;52.026;8.540;2023-04-25T09:37:16;9.10;;;2.45;;
49366;SDS011;35245;52.026;8.540;2023-04-25T09:39:46;10.98;;;3.00;;
49366;SDS011;35245;52.026;8.540;2023-04-25T09:42:13;9.77;;;2.63;;
49366;SDS011;35245;52.026;8.540;2023-04-25T09:44:44;10.23;;;2.17;;
49366;SDS011;35245;52.026;8.540;2023-04-25T09:47:12;7.45;;;2.13;;
49366;SDS011;35245;52.026;8.540;2023-04-25T09:49:40;10.38;;;2.20;;
49366;SDS011;35245;52.026;8.540;2023-04-25T09:52:08;7.85;;;2.15;;
49366;SDS011;35245;52.026;8.540;2023-04-25T09:54:35;6.65;;;1.85;;
49366;SDS011;35245;52.026;8.540;2023-04-25T09:57:06;9.38;;;2.60;;
49366;SDS011;35245;52.026;8.540;2023-04-25T09:59:38;8.65;;;2.70;;
49366;SDS011;35245;52.026;8.540;2023-04-25T10:02:07;8.68;;;2.22;;
49366;SDS011;35245;52.026;8.540;2023-04-25T10:04:35;11.07;;;2.38;;
49366;SDS011;35245;52.026;8.540;2023-04-25T10:07:03;10.82;;;2.17;;
49366;SDS011;35245;52.026;8.540;2023-04-25T10:09:32;8.43;;;2.25;;
49366;SDS011;35245;52.026;8.540;2023-04-25T10:12:00;10.35;;;2.17;;
49366;SDS011;35245;52.026;8.540;2023-04-25T10:14:30;11.15;;;2.65;;
49366;SDS011;35245;52.026;8.540;2023-04-25T10:16:57;7.55;;;1.98;;
49366;SDS011;35245;52.026;8.540;2023-04-25T10:19:24;16.23;;;2.95;;
49366;SDS011;35245;52.026;8.540;2023-04-25T10:21:52;9.75;;;2.95;;
49366;SDS011;35245;52.026;8.540;2023-04-25T10:24:22;10.70;;;2.40;;
49366;SDS011;35245;52.026;8.540;2023-04-25T10:26:49;6.97;;;1.95;;
49366;SDS011;35245;52.026;8.540;2023-04-25T10:29:21;7.72;;;2.33;;
49366;SDS011;35245;52.026;8.540;2023-04-25T10:31:51;12.25;;;2.65;;
49366;SDS011;35245;52.026;8.540;2023-04-25T10:34:18;5.95;;;2.00;;
49366;SDS011;35245;52.026;8.540;2023-04-25T10:36:49;16.25;;;2.75;;
49366;SDS011;35245;52.026;8.540;2023-04-25T10:39:22;11.80;;;2.78;;
49366;SDS011;35245;52.026;8.540;2023-04-25T10:41:53;15.05;;;3.63;;
49366;SDS011;35245;52.026;8.540;2023-04-25T10:44:22;10.45;;;2.70;;
49366;SDS011;35245;52.026;8.540;2023-04-25T10:46:50;8.10;;;2.67;;
49366;SDS011;35245;52.026;8.540;2023-04-25T10:49:28;10.00;;;2.15;;
49366;SDS011;35245;52.026;8.540;2023-04-25T10:52:16;11.30;;;2.42;;
49366;SDS011;35245;52.026;8.540;2023-04-25T10:54:47;8.40;;;1.98;;
49366;SDS011;35245;52.026;8.540;2023-04-25T10:57:31;7.55;;;2.63;;
49366;SDS011;35245;52.026;8.540;2023-04-25T11:00:01;11.77;;;2.55;;
49366;SDS011;35245;52.026;8.540;2023-04-25T11:02:33;8.73;;;2.17;;
49366;SDS011;35245;52.026;8.540;2023-04-25T11:05:04;15.68;;;3.03;;
49366;SDS011;35245;52.026;8.540;2023-04-25T11:07:33;11.07;;;2.58;;
49366;SDS011;35245;52.026;8.540;2023-04-25T11:10:04;5.60;;;1.77;;
49366;SDS011;35245;52.026;8.540;2023-04-25T11:12:32;7.25;;;2.15;;
49366;SDS011;35245;52.026;8.540;2023-04-25T11:15:00;12.40;;;3.30;;
49366;SDS011;35245;52.026;8.540;2023-04-25T11:17:28;10.05;;;2.58;;
49366;SDS011;35245;52.026;8.540;2023-04-25T11:19:57;8.77;;;2.47;;
49366;SDS011;35245;52.026;8.540;2023-04-25T11:22:24;8.35;;;2.20;;
49366;SDS011;35245;52.026;8.540;2023-04-25T11:24:50;6.72;;;2.22;;
49366;SDS011;35245;52.026;8.540;2023-04-25T11:27:17;8.10;;;2.60;;
49366;SDS011;35245;52.026;8.540;2023-04-25T11:29:44;9.18;;;2.13;;
49366;SDS011;35245;52.026;8.540;2023-04-25T11:32:13;8.60;;;2.00;;
49366;SDS011;35245;52.026;8.540;2023-04-25T11:34:44;10.48;;;2.97;;
49366;SDS011;35245;52.026;8.540;2023-04-25T11:37:12;10.02;;;2.90;;
49366;SDS011;35245;52.026;8.540;2023-04-25T11:39:42;8.43;;;3.00;;
49366;SDS011;35245;52.026;8.540;2023-04-25T11:42:11;9.05;;;2.90;;
49366;SDS011;35245;52.026;8.540;2023-04-25T11:44:39;9.30;;;2.30;;
49366;SDS011;35245;52.026;8.540;2023-04-25T11:47:06;10.85;;;2.40;;
49366;SDS011;35245;52.026;8.540;2023-04-25T11:49:33;11.43;;;2.50;;
49366;SDS011;35245;52.026;8.540;2023-04-25T11:52:00;20.67;;;7.47;;
49366;SDS011;35245;52.026;8.540;2023-04-25T11:54:29;8.00;;;2.80;;
49366;SDS011;35245;52.026;8.540;2023-04-25T11:56:56;10.43;;;2.63;;
49366;SDS011;35245;52.026;8.540;2023-04-25T11:59:23;11.40;;;3.30;;
49366;SDS011;35245;52.026;8.540;2023-04-25T12:01:51;14.25;;;5.22;;
49366;SDS011;35245;52.026;8.540;2023-04-25T12:04:19;10.25;;;2.45;;
49366;SDS011;35245;52.026;8.540;2023-04-25T12:06:47;8.15;;;2.83;;
49366;SDS011;35245;52.026;8.540;2023-04-25T12:09:16;9.18;;;3.08;;
49366;SDS011;35245;52.026;8.540;2023-04-25T12:11:46;8.68;;;2.83;;
49366;SDS011;35245;52.026;8.540;2023-04-25T12:14:20;12.02;;;2.50;;
49366;SDS011;35245;52.026;8.540;2023-04-25T12:16:49;10.48;;;2.53;;
49366;SDS011;35245;52.026;8.540;2023-04-25T12:19:17;8.45;;;2.38;;
49366;SDS011;35245;52.026;8.540;2023-04-25T12:21:47;8.80;;;2.20;;
49366;SDS011;35245;52.026;8.540;2023-04-25T12:24:15;7.93;;;2.33;;
49366;SDS011;35245;52.026;8.540;2023-04-25T12:26:48;10.18;;;2.45;;
49366;SDS011;35245;52.026;8.540;2023-04-25T12:29:17;8.90;;;2.55;;
49366;SDS011;35245;52.026;8.540;2023-04-25T12:31:45;8.07;;;2.10;;
49366;SDS011;35245;52.026;8.540;2023-04-25T12:34:12;7.50;;;1.98;;
49366;SDS011;35245;52.026;8.540;2023-04-25T12:36:39;8.05;;;1.90;;
49366;SDS011;35245;52.026;8.540;2023-04-25T12:39:06;7.10;;;2.13;;
49366;SDS011;35245;52.026;8.540;2023-04-25T12:41:33;7.18;;;1.38;;
49366;SDS011;35245;52.026;8.540;2023-04-25T12:44:02;5.30;;;1.83;;
49366;SDS011;35245;52.026;8.540;2023-04-25T12:46:30;7.68;;;2.03;;
49366;SDS011;35245;52.026;8.540;2023-04-25T12:48:56;7.18;;;2.00;;
49366;SDS011;35245;52.026;8.540;2023-04-25T12:51:23;5.80;;;1.58;;
49366;SDS011;35245;52.026;8.540;2023-04-25T12:53:52;7.35;;;2.20;;
49366;SDS011;35245;52.026;8.540;2023-04-25T12:56:19;5.30;;;1.55;;
49366;SDS011;35245;52.026;8.540;2023-04-25T12:58:46;6.80;;;2.28;;
49366;SDS011;35245;52.026;8.540;2023-04-25T13:01:15;4.88;;;1.98;;
49366;SDS011;35245;52.026;8.540;2023-04-25T13:03:42;6.00;;;1.65;;
49366;SDS011;35245;52.026;8.540;2023-04-25T13:06:09;4.45;;;1.80;;
49366;SDS011;35245;52.026;8.540;2023-04-25T13:08:37;6.53;;;1.80;;
49366;SDS011;35245;52.026;8.540;2023-04-25T13:11:05;10.93;;;2.25;;
49366;SDS011;35245;52.026;8.540;2023-04-25T13:13:32;7.15;;;1.90;;
49366;SDS011;35245;52.026;8.540;2023-04-25T13:16:00;4.55;;;1.42;;
49366;SDS011;35245;52.026;8.540;2023-04-25T13:18:28;8.88;;;1.67;;
49366;SDS011;35245;52.026;8.540;2023-04-25T13:20:55;3.65;;;1.40;;
49366;SDS011;35245;52.026;8.540;2023-04-25T13:23:23;5.70;;;2.17;;
49366;SDS011;35245;52.026;8.540;2023-04-25T13:25:51;3.80;;;1.77;;
49366;SDS011;35245;52.026;8.540;2023-04-25T13:28:18;5.85;;;2.10;;
49366;SDS011;35245;52.026;8.540;2023-04-25T13:30:45;9.32;;;1.75;;
49366;SDS011;35245;52.026;8.540;2023-04-25T13:33:13;5.00;;;1.45;;
49366;SDS011;35245;52.026;8.540;2023-04-25T13:35:41;8.65;;;1.83;;
49366;SDS011;35245;52.026;8.540;2023-04-25T13:38:08;5.03;;;1.60;;
49366;SDS011;35245;52.026;8.540;2023-04-25T13:40:35;4.57;;;1.42;;
49366;SDS011;35245;52.026;8.540;2023-04-25T13:43:02;4.95;;;1.80;;
49366;SDS011;35245;52.026;8.540;2023-04-25T13:45:29;4.78;;;1.17;;
49366;SDS011;35245;52.026;8.540;2023-04-25T13:47:56;4.00;;;1.60;;
49366;SDS011;35245;52.026;8.540;2023-04-25T13:50:23;5.32;;;1.50;;
49366;SDS011;35245;52.026;8.540;2023-04-25T13:52:52;3.45;;;1.50;;
49366;SDS011;35245;52.026;8.540;2023-04-25T13:55:19;4.05;;;1.80;;
49366;SDS011;35245;52.026;8.540;2023-04-25T13:57:46;4.93;;;1.83;;
49366;SDS011;35245;52.026;8.540;2023-04-25T14:00:13;4.10;;;1.55;;
49366;SDS011;35245;52.026;8.540;2023-04-25T14:02:41;3.88;;;1.45;;
49366;SDS011;35245;52.026;8.540;2023-04-25T14:05:08;6.80;;;2.08;;
49366;SDS011;35245;52.026;8.540;2023-04-25T14:07:35;3.42;;;1.35;;
49366;SDS011;35245;52.026;8.540;2023-04-25T14:10:04;5.38;;;1.48;;
49366;SDS011;35245;52.026;8.540;2023-04-25T14:12:32;3.50;;;1.40;;
49366;SDS011;35245;52.026;8.540;2023-04-25T14:14:59;5.50;;;1.73;;
49366;SDS011;35245;52.026;8.540;2023-04-25T14:17:26;3.45;;;1.40;;
49366;SDS011;35245;52.026;8.540;2023-04-25T14:19:53;5.43;;;1.70;;
49366;SDS011;35245;52.026;8.540;2023-04-25T14:22:20;8.27;;;2.28;;
49366;SDS011;35245;52.026;8.540;2023-04-25T14:24:47;6.78;;;1.48;;
49366;SDS011;35245;52.026;8.540;2023-04-25T14:27:15;4.72;;;1.45;;
49366;SDS011;35245;52.026;8.540;2023-04-25T14:29:42;7.57;;;1.35;;
49366;SDS011;35245;52.026;8.540;2023-04-25T14:32:09;4.18;;;1.63;;
49366;SDS011;35245;52.026;8.540;2023-04-25T14:34:36;5.07;;;1.30;;
49366;SDS011;35245;52.026;8.540;2023-04-25T14:37:03;5.95;;;2.72;;
49366;SDS011;35245;52.026;8.540;2023-04-25T14:39:31;3.72;;;1.00;;
49366;SDS011;35245;52.026;8.540;2023-04-25T14:41:58;4.53;;;1.45;;